createdAt,value
2022-08-30T00:00:09.244Z,102280.88
2022-08-30T00:02:35.966Z,102284.31
2022-08-30T00:05:03.998Z,102287.75
2022-08-30T00:07:30.959Z,102287.66
2022-08-30T00:09:57.363Z,102284.16
2022-08-30T00:12:23.832Z,102284.50
2022-08-30T00:14:50.392Z,102283.63
2022-08-30T00:17:17.148Z,102281.25
2022-08-30T00:19:43.727Z,102285.91
2022-08-30T00:22:10.433Z,102289.72
2022-08-30T00:24:36.863Z,102286.19
2022-08-30T00:27:03.364Z,102289.28
2022-08-30T00:29:30.213Z,102290.53
2022-08-30T00:31:56.586Z,102290.53
2022-08-30T00:34:22.999Z,102279.16
2022-08-30T00:36:51.779Z,102281.06
2022-08-30T00:39:18.148Z,102275.19
2022-08-30T00:41:44.860Z,102275.53
2022-08-30T00:44:11.417Z,102275.09
2022-08-30T00:46:38.126Z,102275.81
2022-08-30T00:49:08.891Z,102274.94
2022-08-30T00:51:35.691Z,102284.66
2022-08-30T00:54:03.891Z,102286.03
2022-08-30T00:56:32.416Z,102289.47
2022-08-30T00:59:01.981Z,102281.19
2022-08-30T01:01:30.332Z,102287.44
2022-08-30T01:03:59.610Z,102294.84
2022-08-30T01:06:26.160Z,102286.94
2022-08-30T01:09:00.611Z,102291.16
2022-08-30T01:11:28.131Z,102280.94
2022-08-30T01:13:56.288Z,102282.91
2022-08-30T01:16:25.305Z,102281.28
2022-08-30T01:18:57.444Z,102291.44
2022-08-30T01:21:35.120Z,102288.69
2022-08-30T01:24:03.029Z,102291.09
2022-08-30T01:26:30.644Z,102295.72
2022-08-30T01:29:01.917Z,102295.28
2022-08-30T01:31:28.488Z,102289.13
2022-08-30T01:33:55.055Z,102286.75
2022-08-30T01:36:21.972Z,102287.44
2022-08-30T01:38:55.207Z,102291.69
2022-08-30T01:41:31.477Z,102294.44
2022-08-30T01:44:00.755Z,102299.88
2022-08-30T01:46:39.796Z,102298.97
2022-08-30T01:49:09.595Z,102309.44
2022-08-30T01:51:37.075Z,102305.03
2022-08-30T01:54:04.275Z,102311.63
2022-08-30T01:56:30.728Z,102301.06
2022-08-30T01:59:02.365Z,102301.41
2022-08-30T02:01:40.278Z,102311.56
2022-08-30T02:10:32.441Z,102302.03
2022-08-30T02:13:17.768Z,102301.22
2022-08-30T02:15:44.264Z,102302.72
2022-08-30T02:18:10.900Z,102297.97
2022-08-30T02:20:39.541Z,102297.88
2022-08-30T02:23:05.961Z,102297.78
2022-08-30T02:25:32.451Z,102295.75
2022-08-30T02:27:59.061Z,102292.94
2022-08-30T02:30:25.510Z,102296.44
2022-08-30T02:32:52.505Z,102298.97
2022-08-30T02:35:19.012Z,102293.44
2022-08-30T02:37:45.912Z,102291.84
2022-08-30T02:40:12.878Z,102289.09
2022-08-30T02:42:42.587Z,102288.31
2022-08-30T02:45:24.685Z,102288.75
2022-08-30T02:48:00.862Z,102287.16
2022-08-30T02:53:08.393Z,102281.25
2022-08-30T02:55:39.448Z,102285.16
2022-08-30T02:58:06.825Z,102286.97
2022-08-30T03:00:34.330Z,102281.31
2022-08-30T03:03:03.624Z,102273.47
2022-08-30T03:05:33.477Z,102273.81
2022-08-30T03:08:00.615Z,102269.09
2022-08-30T03:10:29.118Z,102276.13
2022-08-30T03:12:56.296Z,102272.50
2022-08-30T03:15:25.534Z,102275.91
2022-08-30T03:17:53.882Z,102270.03
2022-08-30T03:20:21.525Z,102264.91
2022-08-30T03:22:48.421Z,102265.25
2022-08-30T03:25:15.486Z,102277.28
2022-08-30T03:27:42.050Z,102273.78
2022-08-30T03:30:09.645Z,102269.94
2022-08-30T03:32:36.624Z,102268.22
2022-08-30T03:35:04.006Z,102268.22
2022-08-30T03:37:30.625Z,102271.28
2022-08-30T03:39:57.385Z,102264.16
2022-08-30T03:42:24.789Z,102264.16
2022-08-30T03:44:51.988Z,102267.59
2022-08-30T03:47:18.568Z,102265.19
2022-08-30T03:49:45.003Z,102265.09
2022-08-30T03:52:11.534Z,102273.97
2022-08-30T03:55:01.565Z,102273.97
2022-08-30T03:57:28.802Z,102275.44
2022-08-30T03:59:55.433Z,102264.91
2022-08-30T04:02:22.077Z,102273.41
2022-08-30T04:04:48.760Z,102270.59
2022-08-30T04:07:15.186Z,102265.03
2022-08-30T04:09:42.020Z,102273.66
2022-08-30T04:12:09.248Z,102270.59
2022-08-30T04:14:35.801Z,102268.97
2022-08-30T04:17:02.209Z,102278.75
2022-08-30T04:19:28.615Z,102272.06
2022-08-30T04:21:55.122Z,102283.28
2022-08-30T04:24:21.507Z,102280.44
2022-08-30T04:26:48.103Z,102282.38
2022-08-30T04:29:17.013Z,102273.28
2022-08-30T04:31:45.254Z,102273.28
2022-08-30T04:34:13.055Z,102275.13
2022-08-30T04:36:39.903Z,102276.94
2022-08-30T04:39:07.143Z,102277.72
2022-08-30T04:41:33.968Z,102282.28
2022-08-30T04:44:03.566Z,102291.91
2022-08-30T04:46:30.471Z,102288.06
2022-08-30T04:48:57.179Z,102286.56
2022-08-30T04:51:23.626Z,102284.66
2022-08-30T04:53:50.035Z,102281.94
2022-08-30T04:56:22.188Z,102285.13
2022-08-30T04:58:51.178Z,102293.06
2022-08-30T05:01:21.569Z,102299.63
2022-08-30T05:03:51.476Z,102298.50
2022-08-30T05:06:19.123Z,102300.41
2022-08-30T05:08:46.876Z,102305.06
2022-08-30T05:11:14.927Z,102307.47
2022-08-30T05:13:41.375Z,102300.06
2022-08-30T05:16:08.799Z,102309.84
2022-08-30T05:18:36.633Z,102307.13
2022-08-30T05:21:13.605Z,102309.50
2022-08-30T05:23:41.191Z,102307.13
2022-08-30T05:26:13.116Z,102312.56
2022-08-30T05:28:40.073Z,102312.81
2022-08-30T05:31:14.684Z,102322.59
2022-08-30T05:33:42.171Z,102323.69
2022-08-30T05:36:10.128Z,102326.41
2022-08-30T05:38:36.585Z,102320.97
2022-08-30T05:41:10.607Z,102329.84
2022-08-30T05:43:37.981Z,102329.56
2022-08-30T05:46:10.569Z,102341.78
2022-08-30T05:48:38.069Z,102336.69
2022-08-30T05:51:11.632Z,102333.09
2022-08-30T05:53:39.326Z,102342.25
2022-08-30T05:56:08.312Z,102341.31
2022-08-30T05:58:35.240Z,102333.47
2022-08-30T06:01:02.025Z,102329.06
2022-08-30T06:03:29.117Z,102333.63
2022-08-30T06:05:55.841Z,102329.31
2022-08-30T06:08:22.300Z,102330.13
2022-08-30T06:10:48.708Z,102331.69
2022-08-30T06:13:15.516Z,102336.56
2022-08-30T06:15:45.297Z,102332.72
2022-08-30T06:18:12.900Z,102331.41
2022-08-30T06:20:43.963Z,102329.03
2022-08-30T06:23:11.040Z,102326.16
2022-08-30T06:25:41.173Z,102324.81
2022-08-30T06:28:09.571Z,102331.22
2022-08-30T06:30:36.453Z,102338.41
2022-08-30T06:33:02.867Z,102340.84
2022-08-30T06:35:30.839Z,102336.53
2022-08-30T06:38:01.766Z,102338.41
2022-08-30T06:40:28.289Z,102349.09
2022-08-30T06:43:01.017Z,102343.84
2022-08-30T06:45:27.581Z,102350.03
2022-08-30T06:47:54.028Z,102344.44
2022-08-30T06:50:20.833Z,102350.69
2022-08-30T06:52:47.892Z,102340.09
2022-08-30T06:55:16.164Z,102340.97
2022-08-30T06:57:42.916Z,102346.44
2022-08-30T07:00:14.136Z,102350.41
2022-08-30T07:02:41.691Z,102350.19
2022-08-30T07:05:08.848Z,102344.78
2022-08-30T07:07:35.548Z,102348.88
2022-08-30T07:10:04.836Z,102343.13
2022-08-30T07:12:31.544Z,102344.03
2022-08-30T07:14:58.106Z,102336.81
2022-08-30T07:17:43.077Z,102333.50
2022-08-30T07:20:10.373Z,102332.22
2022-08-30T07:22:37.001Z,102329.84
2022-08-30T07:25:03.828Z,102333.00
2022-08-30T07:27:30.784Z,102323.69
2022-08-30T07:29:58.771Z,102325.22
2022-08-30T07:32:25.642Z,102331.56
2022-08-30T07:34:52.219Z,102325.63
2022-08-30T07:37:19.074Z,102335.81
2022-08-30T07:39:48.048Z,102331.88
2022-08-30T07:42:15.731Z,102333.47
2022-08-30T07:44:42.491Z,102329.72
2022-08-30T07:47:09.198Z,102327.13
2022-08-30T07:49:37.531Z,102321.22
2022-08-30T07:52:04.564Z,102329.97
2022-08-30T07:54:30.978Z,102327.75
2022-08-30T07:57:07.976Z,102340.88
2022-08-30T07:59:36.168Z,102329.47
2022-08-30T08:02:03.034Z,102326.81
2022-08-30T08:04:29.688Z,102342.78
2022-08-30T08:06:56.284Z,102334.50
2022-08-30T08:09:22.825Z,102344.31
2022-08-30T08:11:49.405Z,102340.75
2022-08-30T08:16:44.992Z,102346.19
2022-08-30T08:19:12.279Z,102339.94
2022-08-30T08:21:38.760Z,102341.06
2022-08-30T08:24:05.554Z,102341.53
2022-08-30T08:26:35.752Z,102346.44
2022-08-30T08:29:03.057Z,102343.06
2022-08-30T08:31:33.428Z,102346.56
2022-08-30T08:34:02.843Z,102340.59
2022-08-30T08:36:31.438Z,102337.19
2022-08-30T08:38:58.557Z,102341.16
2022-08-30T08:41:36.858Z,102339.50
2022-08-30T08:44:14.396Z,102341.94
2022-08-30T08:47:06.149Z,102340.59
2022-08-30T08:49:36.060Z,102343.09
2022-08-30T08:52:34.461Z,102345.75
2022-08-30T08:55:07.388Z,102341.25
2022-08-30T08:57:35.819Z,102337.25
2022-08-30T09:00:08.565Z,102344.50
2022-08-30T09:02:43.377Z,102342.19
2022-08-30T09:05:14.679Z,102345.56
2022-08-30T09:07:48.565Z,102342.03
2022-08-30T09:10:16.821Z,102348.13
2022-08-30T09:12:47.011Z,102341.00
2022-08-30T09:15:26.402Z,102343.66
2022-08-30T09:18:04.739Z,102337.94
2022-08-30T09:20:48.881Z,102337.72
2022-08-30T09:23:15.251Z,102336.88
2022-08-30T09:26:10.993Z,102344.97
2022-08-30T09:28:51.340Z,102341.53
2022-08-30T09:31:30.378Z,102334.94
2022-08-30T09:34:03.737Z,102323.00
2022-08-30T09:36:41.093Z,102333.28
2022-08-30T09:39:30.323Z,102327.66
2022-08-30T09:42:15.063Z,102325.06
2022-08-30T09:44:41.781Z,102338.88
2022-08-30T09:47:23.916Z,102341.09
2022-08-30T09:50:04.600Z,102342.28
2022-08-30T09:52:53.316Z,102341.75
2022-08-30T09:55:43.394Z,102341.00
2022-08-30T09:58:30.100Z,102343.16
2022-08-30T10:01:07.573Z,102336.72
2022-08-30T10:03:43.323Z,102340.72
2022-08-30T10:06:39.354Z,102340.00
2022-08-30T10:09:27.310Z,102334.84
2022-08-30T10:12:02.022Z,102343.22
2022-08-30T10:14:48.680Z,102337.28
2022-08-30T10:17:45.898Z,102326.00
2022-08-30T10:20:30.948Z,102331.72
2022-08-30T10:23:10.028Z,102334.50
2022-08-30T10:25:44.564Z,102335.59
2022-08-30T10:28:14.585Z,102333.97
2022-08-30T10:31:04.015Z,102338.81
2022-08-30T10:33:44.368Z,102339.72
2022-08-30T10:36:13.335Z,102340.44
2022-08-30T10:38:44.688Z,102330.91
2022-08-30T10:41:33.643Z,102332.09
2022-08-30T10:44:07.785Z,102339.06
2022-08-30T10:47:10.606Z,102338.22
2022-08-30T10:49:45.294Z,102333.09
2022-08-30T10:52:12.340Z,102336.72
2022-08-30T10:54:48.476Z,102325.16
2022-08-30T10:57:14.904Z,102328.34
2022-08-30T11:00:01.260Z,102331.28
2022-08-30T11:03:03.071Z,102335.53
2022-08-30T11:05:43.225Z,102328.63
2022-08-30T11:08:43.588Z,102324.44
2022-08-30T11:11:22.047Z,102321.34
2022-08-30T11:13:51.657Z,102319.91
2022-08-30T11:16:20.455Z,102322.47
2022-08-30T11:19:00.126Z,102308.44
2022-08-30T11:21:39.698Z,102310.06
2022-08-30T11:24:12.608Z,102305.34
2022-08-30T11:26:45.870Z,102311.06
2022-08-30T11:29:40.142Z,102310.09
2022-08-30T11:32:12.818Z,102321.69
2022-08-30T11:34:45.419Z,102317.19
2022-08-30T11:37:44.664Z,102308.41
2022-08-30T11:40:20.085Z,102309.91
2022-08-30T11:42:49.515Z,102299.22
2022-08-30T11:45:26.529Z,102309.34
2022-08-30T11:47:56.145Z,102312.31
2022-08-30T11:50:48.285Z,102310.66
2022-08-30T11:53:44.111Z,102296.34
2022-08-30T11:56:34.775Z,102292.94
2022-08-30T11:59:11.584Z,102296.13
2022-08-30T12:01:50.623Z,102292.41
2022-08-30T12:04:19.628Z,102299.84
2022-08-30T12:07:06.955Z,102284.44
2022-08-30T12:09:34.932Z,102290.78
2022-08-30T12:12:06.107Z,102286.66
2022-08-30T12:14:44.629Z,102283.34
2022-08-30T12:18:15.568Z,102279.13
2022-08-30T12:20:49.492Z,102283.94
2022-08-30T12:23:30.783Z,102278.50
2022-08-30T12:26:14.867Z,102285.59
2022-08-30T12:28:43.249Z,102273.31
2022-08-30T12:31:17.532Z,102275.69
2022-08-30T12:33:47.625Z,102275.06
2022-08-30T12:36:50.252Z,102266.09
2022-08-30T12:39:20.612Z,102271.03
2022-08-30T12:41:47.173Z,102271.06
2022-08-30T12:44:27.656Z,102265.19
2022-08-30T12:47:00.280Z,102266.81
2022-08-30T12:49:31.198Z,102263.56
2022-08-30T12:52:29.398Z,102268.88
2022-08-30T12:55:17.400Z,102274.03
2022-08-30T12:58:00.738Z,102261.84
2022-08-30T13:00:47.114Z,102262.94
2022-08-30T13:03:39.347Z,102260.13
2022-08-30T13:06:08.012Z,102250.75
2022-08-30T13:08:49.096Z,102252.53
2022-08-30T13:11:21.324Z,102247.03
2022-08-30T13:13:52.167Z,102247.28
2022-08-30T13:16:20.417Z,102244.22
2022-08-30T13:18:50.012Z,102238.97
2022-08-30T13:21:34.624Z,102240.19
2022-08-30T13:24:03.943Z,102247.66
2022-08-30T13:26:33.002Z,102228.09
2022-08-30T13:29:02.204Z,102229.81
2022-08-30T13:31:30.878Z,102230.88
2022-08-30T13:33:57.921Z,102233.31
2022-08-30T13:36:34.248Z,102238.56
2022-08-30T13:39:01.861Z,102227.94
2022-08-30T13:41:30.187Z,102239.34
2022-08-30T13:44:16.322Z,102229.31
2022-08-30T13:46:53.378Z,102226.06
2022-08-30T13:52:23.026Z,102221.63
2022-08-30T13:54:54.676Z,102219.59
2022-08-30T14:00:19.083Z,102226.81
2022-08-30T14:02:54.267Z,102225.41
2022-08-30T14:08:45.283Z,102223.06
2022-08-30T14:11:16.324Z,102211.78
2022-08-30T14:16:33.215Z,102221.44
2022-08-30T14:19:01.191Z,102211.19
2022-08-30T14:21:28.475Z,102216.06
2022-08-30T14:23:57.727Z,102216.97
2022-08-30T14:26:33.203Z,102219.78
2022-08-30T14:29:05.024Z,102216.34
2022-08-30T14:31:35.654Z,102218.22
2022-08-30T14:34:04.060Z,102203.59
2022-08-30T14:36:31.785Z,102209.91
2022-08-30T14:38:58.579Z,102207.66
2022-08-30T14:41:25.486Z,102204.31
2022-08-30T14:43:52.548Z,102213.88
2022-08-30T14:46:19.282Z,102209.97
2022-08-30T14:48:46.954Z,102215.31
2022-08-30T14:51:16.728Z,102208.63
2022-08-30T14:53:43.815Z,102211.50
2022-08-30T14:56:12.676Z,102213.03
2022-08-30T14:58:39.436Z,102210.09
2022-08-30T15:01:08.710Z,102217.78
2022-08-30T15:03:36.806Z,102211.09
2022-08-30T15:06:03.443Z,102212.16
2022-08-30T15:08:29.967Z,102212.53
2022-08-30T15:10:56.393Z,102201.97
2022-08-30T15:13:23.012Z,102201.41
2022-08-30T15:15:49.600Z,102202.28
2022-08-30T15:18:17.563Z,102197.31
2022-08-30T15:20:49.774Z,102202.41
2022-08-30T15:23:17.136Z,102190.59
2022-08-30T15:25:49.496Z,102193.81
2022-08-30T15:28:16.786Z,102193.75
2022-08-30T15:30:44.300Z,102194.97
2022-08-30T15:33:10.964Z,102186.56
2022-08-30T15:35:37.541Z,102185.56
2022-08-30T15:38:04.049Z,102183.63
2022-08-30T15:40:32.802Z,102173.19
2022-08-30T15:42:59.320Z,102172.31
2022-08-30T15:45:25.788Z,102168.06
2022-08-30T15:47:52.177Z,102172.25
2022-08-30T15:50:18.561Z,102168.03
2022-08-30T15:52:45.013Z,102164.81
2022-08-30T15:55:11.471Z,102167.75
2022-08-30T15:57:37.885Z,102167.28
2022-08-30T16:00:08.161Z,102173.28
2022-08-30T16:02:35.077Z,102177.03
2022-08-30T16:05:02.026Z,102171.81
2022-08-30T16:07:28.779Z,102176.13
2022-08-30T16:09:55.204Z,102164.44
2022-08-30T16:12:23.288Z,102168.41
2022-08-30T16:14:50.676Z,102167.31
2022-08-30T16:17:17.347Z,102164.66
2022-08-30T16:19:44.732Z,102168.97
2022-08-30T16:22:11.275Z,102165.47
2022-08-30T16:24:38.548Z,102157.31
2022-08-30T16:27:05.960Z,102160.03
2022-08-30T16:29:35.442Z,102150.38
2022-08-30T16:32:01.975Z,102154.72
2022-08-30T16:34:28.656Z,102151.94
2022-08-30T16:36:55.204Z,102152.69
2022-08-30T16:39:21.634Z,102153.47
2022-08-30T16:41:48.255Z,102147.69
2022-08-30T16:44:15.640Z,102151.41
2022-08-30T16:46:52.673Z,102150.63
2022-08-30T16:49:20.583Z,102155.66
2022-08-30T16:51:49.625Z,102150.22
2022-08-30T16:54:17.525Z,102139.00
2022-08-30T16:56:45.077Z,102148.56
2022-08-30T16:59:13.083Z,102149.84
2022-08-30T17:01:42.295Z,102146.78
2022-08-30T17:04:09.144Z,102149.16
2022-08-30T17:06:35.951Z,102142.94
2022-08-30T17:09:03.816Z,102148.13
2022-08-30T17:11:32.117Z,102151.00
2022-08-30T17:13:58.635Z,102147.47
2022-08-30T17:16:27.546Z,102145.50
2022-08-30T17:18:56.056Z,102146.31
2022-08-30T17:21:26.709Z,102146.41
2022-08-30T17:23:53.107Z,102146.41
2022-08-30T17:26:20.324Z,102148.44
2022-08-30T17:28:47.036Z,102149.72
2022-08-30T17:31:14.868Z,102148.19
2022-08-30T17:33:43.095Z,102154.13
2022-08-30T17:36:12.226Z,102152.59
2022-08-30T17:38:38.672Z,102155.41
2022-08-30T17:41:11.349Z,102167.69
2022-08-30T17:43:38.010Z,102162.59
2022-08-30T17:46:10.653Z,102161.84
2022-08-30T17:48:38.389Z,102162.66
2022-08-30T17:51:06.286Z,102164.66
2022-08-30T17:53:34.424Z,102164.66
2022-08-30T17:56:01.057Z,102171.00
2022-08-30T17:58:27.453Z,102169.47
2022-08-30T18:01:11.725Z,102168.66
2022-08-30T18:03:38.973Z,102173.41
2022-08-30T18:06:06.899Z,102173.03
2022-08-30T18:08:34.798Z,102178.94
2022-08-30T18:11:04.035Z,102180.13
2022-08-30T18:13:33.459Z,102187.63
2022-08-30T18:16:04.676Z,102183.66
2022-08-30T18:18:32.037Z,102194.66
2022-08-30T18:20:58.744Z,102190.72
2022-08-30T18:23:26.683Z,102189.56
2022-08-30T18:26:01.370Z,102195.06
2022-08-30T18:28:29.142Z,102205.25
2022-08-30T18:30:57.142Z,102199.34
2022-08-30T18:33:24.915Z,102214.28
2022-08-30T18:35:52.125Z,102213.09
2022-08-30T18:38:19.811Z,102209.53
2022-08-30T18:40:52.283Z,102211.88
2022-08-30T18:43:24.611Z,102207.53
2022-08-30T18:46:03.366Z,102213.03
2022-08-30T18:48:30.222Z,102214.19
2022-08-30T18:50:57.135Z,102209.00
2022-08-30T18:53:28.757Z,102223.16
2022-08-30T18:55:56.921Z,102225.09
2022-08-30T18:58:23.499Z,102227.03
2022-08-30T19:00:50.028Z,102221.91
2022-08-30T19:03:18.779Z,102233.66
2022-08-30T19:05:45.782Z,102229.69
2022-08-30T19:08:13.853Z,102232.81
2022-08-30T19:10:40.966Z,102235.13
2022-08-30T19:13:08.113Z,102233.13
2022-08-30T19:15:35.156Z,102229.13
2022-08-30T19:18:02.424Z,102229.91
2022-08-30T19:20:43.519Z,102236.13
2022-08-30T19:23:12.944Z,102242.00
2022-08-30T19:25:41.166Z,102241.16
2022-08-30T19:28:08.079Z,102240.75
2022-08-30T19:30:35.409Z,102238.31
2022-08-30T19:33:02.200Z,102235.16
2022-08-30T19:35:30.183Z,102242.22
2022-08-30T19:37:57.333Z,102233.13
2022-08-30T19:40:23.878Z,102240.19
2022-08-30T19:42:53.472Z,102242.06
2022-08-30T19:45:22.646Z,102242.38
2022-08-30T19:47:50.726Z,102247.84
2022-08-30T19:50:17.847Z,102246.66
2022-08-30T19:52:48.405Z,102240.31
2022-08-30T19:55:19.589Z,102250.88
2022-08-30T19:57:55.140Z,102245.38
2022-08-30T20:00:23.353Z,102249.25
2022-08-30T20:02:51.154Z,102249.66
2022-08-30T20:05:18.203Z,102250.00
2022-08-30T20:07:46.156Z,102252.31
2022-08-30T20:10:15.627Z,102257.41
2022-08-30T20:12:46.897Z,102255.78
2022-08-30T20:15:17.163Z,102254.22
2022-08-30T20:18:03.137Z,102257.31
2022-08-30T20:20:36.430Z,102263.97
2022-08-30T20:23:03.694Z,102257.63
2022-08-30T20:25:30.703Z,102261.84
2022-08-30T20:27:57.400Z,102258.22
2022-08-30T20:30:23.900Z,102263.19
2022-08-30T20:32:52.671Z,102257.28
2022-08-30T20:35:19.678Z,102268.97
2022-08-30T20:37:46.763Z,102269.75
2022-08-30T20:40:15.959Z,102272.78
2022-08-30T20:42:45.453Z,102275.47
2022-08-30T20:45:15.400Z,102279.69
2022-08-30T20:47:43.117Z,102278.06
2022-08-30T20:50:13.683Z,102278.81
2022-08-30T20:52:40.743Z,102278.31
2022-08-30T20:55:08.176Z,102279.50
2022-08-30T20:57:34.719Z,102275.22
2022-08-30T21:00:01.825Z,102280.00
2022-08-30T21:02:28.556Z,102282.22
2022-08-30T21:04:55.181Z,102281.72
2022-08-30T21:07:21.665Z,102282.09
2022-08-30T21:09:48.108Z,102278.91
2022-08-30T21:12:14.558Z,102290.25
2022-08-30T21:14:41.010Z,102286.97
2022-08-30T21:17:07.545Z,102284.53
2022-08-30T21:19:34.024Z,102287.22
2022-08-30T21:22:00.412Z,102292.28
2022-08-30T21:24:27.028Z,102294.50
2022-08-30T21:26:55.770Z,102290.56
2022-08-30T21:29:22.566Z,102294.50
2022-08-30T21:31:49.312Z,102295.28
2022-08-30T21:34:17.240Z,102295.19
2022-08-30T21:38:53.216Z,102302.53
2022-08-30T21:40:05.665Z,102306.44
2022-08-30T21:42:33.038Z,102306.09
2022-08-30T21:45:09.064Z,102305.22
2022-08-30T21:50:20.133Z,102312.53
2022-08-30T21:52:46.735Z,102316.75
2022-08-30T21:55:57.452Z,102319.81
2022-08-30T21:58:24.145Z,102318.97
2022-08-30T22:00:50.812Z,102310.31
2022-08-30T22:03:17.537Z,102321.56
2022-08-30T22:05:51.276Z,102314.84
2022-08-30T22:08:17.671Z,102326.97
2022-08-30T22:10:45.021Z,102323.75
2022-08-30T22:13:31.223Z,102317.09
2022-08-30T22:15:57.883Z,102331.97
2022-08-30T22:18:24.300Z,102319.41
2022-08-30T22:20:50.847Z,102321.38
2022-08-30T22:23:19.079Z,102313.22
2022-08-30T22:25:56.979Z,102327.28
2022-08-30T22:28:24.089Z,102322.59
2022-08-30T22:30:50.861Z,102326.44
2022-08-30T22:33:18.979Z,102319.59
2022-08-30T22:35:47.033Z,102329.28
2022-08-30T22:38:28.310Z,102328.78
2022-08-30T22:40:54.817Z,102332.59
2022-08-30T22:43:22.435Z,102329.88
2022-08-30T22:45:49.056Z,102334.06
2022-08-30T22:48:19.024Z,102331.25
2022-08-30T22:50:45.624Z,102328.94
2022-08-30T22:53:12.029Z,102331.53
2022-08-30T22:55:41.494Z,102338.06
2022-08-30T22:58:08.140Z,102334.13
2022-08-30T23:00:34.604Z,102336.06
2022-08-30T23:03:00.999Z,102338.84
2022-08-30T23:05:27.608Z,102334.47
2022-08-30T23:07:54.104Z,102337.56
2022-08-30T23:10:21.891Z,102335.63
2022-08-30T23:12:48.367Z,102340.13
2022-08-30T23:15:16.100Z,102333.41
2022-08-30T23:17:42.743Z,102341.19
2022-08-30T23:20:09.792Z,102337.53
2022-08-30T23:22:36.376Z,102337.81
2022-08-30T23:25:21.914Z,102345.09
2022-08-30T23:28:09.333Z,102342.28
2022-08-30T23:30:54.446Z,102337.19
2022-08-30T23:33:39.630Z,102340.53
2022-08-30T23:36:31.659Z,102341.28
2022-08-30T23:39:17.398Z,102341.28
2022-08-30T23:42:06.511Z,102339.75
2022-08-30T23:44:52.049Z,102332.25
2022-08-30T23:47:37.497Z,102334.63
2022-08-30T23:50:22.956Z,102334.56
2022-08-30T23:53:10.892Z,102343.56
2022-08-30T23:55:58.147Z,102344.00
2022-08-30T23:58:43.600Z,102340.38
